Time,TemperatureF,DewpointF,PressureIn,WindDirection,WindDirectionDegrees,WindSpeedMPH,WindSpeedGustMPH,Humidity,HourlyPrecipIn,Conditions,Clouds,dailyrainin,SoftwareType,DateUTC
2013-07-01 00:06:00,69.5,50.0,29.91,NW,318,0.0,-999.0,50,-99.99,,,0.00,weatherlink.com 1.10,2013-07-01 07:06:00,
2013-07-01 00:21:00,67.7,46.0,29.91,NW,318,0.0,-999.0,46,-99.99,,,0.00,weatherlink.com 1.10,2013-07-01 07:21:00,
2013-07-01 00:36:00,66.6,43.0,29.91,NW,318,0.0,-999.0,43,-99.99,,,0.00,weatherlink.com 1.10,2013-07-01 07:36:00,
2013-07-01 00:51:00,66.2,41.0,29.91,NW,318,0.0,-999.0,40,-99.99,,,0.00,weatherlink.com 1.10,2013-07-01 07:51:00,
2013-07-01 01:06:00,65.7,40.0,29.91,NW,318,0.0,-999.0,39,-99.99,,,0.00,weatherlink.com 1.10,2013-07-01 08:06:00,
2013-07-01 01:21:00,65.2,39.0,29.91,NW,318,0.0,-999.0,38,-99.99,,,0.00,weatherlink.com 1.10,2013-07-01 08:21:00,
2013-07-01 01:36:00,65.2,38.0,29.91,NW,318,0.0,-999.0,37,-99.99,,,0.00,weatherlink.com 1.10,2013-07-01 08:36:00,
2013-07-01 01:51:00,65.0,38.0,29.91,NW,318,0.0,-999.0,37,-99.99,,,0.00,weatherlink.com 1.10,2013-07-01 08:51:00,
2013-07-01 02:06:00,64.2,37.0,29.91,NW,318,0.0,-999.0,36,-99.99,,,0.00,weatherlink.com 1.10,2013-07-01 09:06:00,
2013-07-01 02:21:00,63.6,36.0,29.90,NW,318,0.0,-999.0,36,-99.99,,,0.00,weatherlink.com 1.10,2013-07-01 09:21:00,
2013-07-01 02:36:00,63.2,36.0,29.91,NW,318,0.0,-999.0,36,-99.99,,,0.00,weatherlink.com 1.10,2013-07-01 09:36:00,
2013-07-01 02:51:00,63.0,35.0,29.91,NW,318,0.0,-999.0,36,-99.99,,,0.00,weatherlink.com 1.10,2013-07-01 09:51:00,
2013-07-01 03:06:00,63.4,35.0,29.91,NW,318,0.0,-999.0,35,-99.99,,,0.00,weatherlink.com 1.10,2013-07-01 10:06:00,
2013-07-01 03:21:00,62.9,35.0,29.91,NW,318,0.0,-999.0,35,-99.99,,,0.00,weatherlink.com 1.10,2013-07-01 10:21:00,
2013-07-01 03:36:00,63.0,35.0,29.92,NW,319,0.0,-999.0,35,-99.99,,,0.00,weatherlink.com 1.10,2013-07-01 10:36:00,
2013-07-01 03:51:00,63.3,35.0,29.93,NW,321,0.0,-999.0,35,-99.99,,,0.00,weatherlink.com 1.10,2013-07-01 10:51:00,
2013-07-01 04:06:00,63.2,36.0,29.92,NW,321,0.0,-999.0,36,-99.99,,,0.00,weatherlink.com 1.10,2013-07-01 11:06:00,
2013-07-01 04:22:00,62.8,35.0,29.92,NW,321,0.0,-999.0,36,-99.99,,,0.00,weatherlink.com 1.10,2013-07-01 11:22:00,
2013-07-01 04:36:00,62.1,35.0,29.93,NW,321,0.0,-999.0,36,-99.99,,,0.00,weatherlink.com 1.10,2013-07-01 11:36:00,
2013-07-01 04:51:00,61.6,34.0,29.93,NW,321,0.0,-999.0,36,-99.99,,,0.00,weatherlink.com 1.10,2013-07-01 11:51:00,
2013-07-01 05:06:00,61.3,34.0,29.93,NW,321,0.0,-999.0,36,-99.99,,,0.00,weatherlink.com 1.10,2013-07-01 12:06:00,
2013-07-01 05:21:00,60.2,34.0,29.93,NW,321,0.0,-999.0,37,-99.99,,,0.00,weatherlink.com 1.10,2013-07-01 12:21:00,
2013-07-01 05:37:00,60.0,33.0,29.94,NW,321,0.0,-999.0,36,-99.99,,,0.00,weatherlink.com 1.10,2013-07-01 12:37:00,
2013-07-01 05:52:00,60.0,33.0,29.94,NW,321,0.0,-999.0,36,-99.99,,,0.00,weatherlink.com 1.10,2013-07-01 12:52:00,
2013-07-01 06:07:00,60.6,33.0,29.95,NW,321,0.0,-999.0,36,-99.99,,,0.00,weatherlink.com 1.10,2013-07-01 13:07:00,
2013-07-01 06:22:00,60.8,33.0,29.95,NW,321,0.0,-999.0,36,-99.99,,,0.00,weatherlink.com 1.10,2013-07-01 13:22:00,
2013-07-01 06:37:00,61.0,34.0,29.94,NW,317,0.0,-999.0,36,-99.99,,,0.00,weatherlink.com 1.10,2013-07-01 13:37:00,
2013-07-01 06:52:00,61.3,34.0,29.95,NW,317,0.0,-999.0,36,-99.99,,,0.00,weatherlink.com 1.10,2013-07-01 13:52:00,
2013-07-01 07:07:00,62.7,35.0,29.95,NW,315,0.0,-999.0,36,-99.99,,,0.00,weatherlink.com 1.10,2013-07-01 14:07:00,
2013-07-01 07:22:00,63.1,37.0,29.94,NW,313,0.0,-999.0,38,-99.99,,,0.00,weatherlink.com 1.10,2013-07-01 14:22:00,
2013-07-01 07:37:00,63.7,39.0,29.95,NW,311,0.0,-999.0,41,-99.99,,,0.00,weatherlink.com 1.10,2013-07-01 14:37:00,
2013-07-01 07:52:00,65.7,45.0,29.94,NW,311,0.0,-999.0,47,-99.99,,,0.00,weatherlink.com 1.10,2013-07-01 14:52:00,
2013-07-01 08:07:00,66.4,46.0,29.94,West,271,0.0,-999.0,48,-99.99,,,0.00,weatherlink.com 1.10,2013-07-01 15:07:00,
2013-07-01 08:22:00,67.1,48.0,29.94,WSW,252,0.0,-999.0,51,-99.99,,,0.00,weatherlink.com 1.10,2013-07-01 15:22:00,
2013-07-01 08:37:00,67.5,49.0,29.93,WNW,284,3.0,-999.0,52,-99.99,,,0.00,weatherlink.com 1.10,2013-07-01 15:37:00,
2013-07-01 08:52:00,68.7,51.0,29.94,WNW,294,0.0,-999.0,53,-99.99,,,0.00,weatherlink.com 1.10,2013-07-01 15:52:00,
2013-07-01 09:07:00,69.4,51.0,29.94,WSW,256,1.0,-999.0,53,-99.99,,,0.00,weatherlink.com 1.10,2013-07-01 16:07:00,
2013-07-01 09:22:00,69.7,52.0,29.94,WSW,254,1.0,-999.0,54,-99.99,,,0.00,weatherlink.com 1.10,2013-07-01 16:22:00,
2013-07-01 09:37:00,70.5,54.0,29.94,WNW,296,1.0,-999.0,56,-99.99,,,0.00,weatherlink.com 1.10,2013-07-01 16:37:00,
2013-07-01 09:52:00,70.7,54.0,29.93,NW,307,0.0,-999.0,56,-99.99,,,0.00,weatherlink.com 1.10,2013-07-01 16:52:00,
2013-07-01 10:07:00,71.3,55.0,29.94,WNW,298,0.0,-999.0,57,-99.99,,,0.00,weatherlink.com 1.10,2013-07-01 17:07:00,
2013-07-01 10:22:00,72.2,55.0,29.94,WNW,300,0.0,-999.0,56,-99.99,,,0.00,weatherlink.com 1.10,2013-07-01 17:22:00,
2013-07-01 10:37:00,73.5,58.0,29.94,WNW,288,0.0,-999.0,58,-99.99,,,0.00,weatherlink.com 1.10,2013-07-01 17:37:00,
2013-07-01 10:52:00,73.8,57.0,29.94,WSW,240,0.0,-999.0,56,-99.99,,,0.00,weatherlink.com 1.10,2013-07-01 17:52:00,
2013-07-01 11:07:00,74.9,59.0,29.93,WNW,292,5.0,-999.0,57,-99.99,,,0.00,weatherlink.com 1.10,2013-07-01 18:07:00,
2013-07-01 11:22:00,75.3,60.0,29.93,South,173,1.0,-999.0,59,-99.99,,,0.00,weatherlink.com 1.10,2013-07-01 18:22:00,
2013-07-01 11:37:00,76.2,61.0,29.93,SW,229,0.0,-999.0,59,-99.99,,,0.00,weatherlink.com 1.10,2013-07-01 18:37:00,
2013-07-01 11:52:00,76.7,61.0,29.93,ESE,103,1.0,-999.0,59,-99.99,,,0.00,weatherlink.com 1.10,2013-07-01 18:52:00,
2013-07-01 12:07:00,77.8,62.0,29.93,SW,219,0.0,-999.0,59,-99.99,,,0.00,weatherlink.com 1.10,2013-07-01 19:07:00,
2013-07-01 12:22:00,78.1,62.0,29.93,WSW,257,0.0,-999.0,58,-99.99,,,0.00,weatherlink.com 1.10,2013-07-01 19:22:00,
2013-07-01 12:37:00,79.1,63.0,29.93,NW,311,2.0,-999.0,59,-99.99,,,0.00,weatherlink.com 1.10,2013-07-01 19:37:00,
2013-07-01 12:52:00,80.1,64.0,29.93,South,185,0.0,-999.0,59,-99.99,,,0.00,weatherlink.com 1.10,2013-07-01 19:52:00,
2013-07-01 13:07:00,80.3,64.0,29.93,NNW,334,4.0,-999.0,58,-99.99,,,0.00,weatherlink.com 1.10,2013-07-01 20:07:00,
2013-07-01 13:22:00,81.2,65.0,29.93,SSE,159,0.0,-999.0,58,-99.99,,,0.00,weatherlink.com 1.10,2013-07-01 20:22:00,
2013-07-01 13:37:00,82.1,66.0,29.93,WNW,296,5.0,-999.0,58,-99.99,,,0.00,weatherlink.com 1.10,2013-07-01 20:37:00,
2013-07-01 13:52:00,82.8,66.0,29.93,SSE,165,0.0,-999.0,58,-99.99,,,0.00,weatherlink.com 1.10,2013-07-01 20:52:00,
2013-07-01 14:07:00,83.3,67.0,29.93,South,171,2.0,-999.0,58,-99.99,,,0.00,weatherlink.com 1.10,2013-07-01 21:07:00,
2013-07-01 14:22:00,84.0,68.0,29.92,ESE,119,0.0,-999.0,58,-99.99,,,0.00,weatherlink.com 1.10,2013-07-01 21:22:00,
2013-07-01 14:37:00,84.7,68.0,29.92,West,267,0.0,-999.0,58,-99.99,,,0.00,weatherlink.com 1.10,2013-07-01 21:37:00,
2013-07-01 14:52:00,85.3,69.0,29.93,WSW,243,0.0,-999.0,58,-99.99,,,0.00,weatherlink.com 1.10,2013-07-01 21:52:00,
2013-07-01 15:07:00,85.7,69.0,29.92,SW,221,0.0,-999.0,58,-99.99,,,0.00,weatherlink.com 1.10,2013-07-01 22:07:00,
2013-07-01 15:22:00,86.0,69.0,29.93,SW,228,0.0,-999.0,57,-99.99,,,0.00,weatherlink.com 1.10,2013-07-01 22:22:00,
2013-07-01 15:37:00,86.2,69.0,29.93,ESE,109,1.0,-999.0,57,-99.99,,,0.00,weatherlink.com 1.10,2013-07-01 22:37:00,
2013-07-01 15:52:00,87.4,71.0,29.93,NE,55,0.0,-999.0,58,-99.99,,,0.00,weatherlink.com 1.10,2013-07-01 22:52:00,
2013-07-01 16:07:00,87.8,71.0,29.93,WSW,252,3.0,-999.0,57,-99.99,,,0.00,weatherlink.com 1.10,2013-07-01 23:07:00,
2013-07-01 16:22:00,87.9,71.0,29.92,WNW,289,0.0,-999.0,57,-99.99,,,0.00,weatherlink.com 1.10,2013-07-01 23:22:00,
2013-07-01 16:37:00,88.6,71.0,29.92,West,281,4.0,-999.0,56,-99.99,,,0.00,weatherlink.com 1.10,2013-07-01 23:37:00,
2013-07-01 16:52:00,88.4,71.0,29.92,West,277,7.0,-999.0,56,-99.99,,,0.00,weatherlink.com 1.10,2013-07-01 23:52:00,
2013-07-01 17:07:00,85.5,69.0,29.92,NW,323,6.0,-999.0,58,-99.99,,,0.00,weatherlink.com 1.10,2013-07-02 00:07:00,
2013-07-01 17:22:00,84.7,68.0,29.93,West,278,3.0,-999.0,58,-99.99,,,0.00,weatherlink.com 1.10,2013-07-02 00:22:00,
2013-07-01 17:37:00,84.3,68.0,29.93,NNW,335,5.0,-999.0,58,-99.99,,,0.00,weatherlink.com 1.10,2013-07-02 00:37:00,
2013-07-01 17:52:00,83.8,67.0,29.93,NNW,328,7.0,-999.0,58,-99.99,,,0.00,weatherlink.com 1.10,2013-07-02 00:52:00,
2013-07-01 18:07:00,83.2,67.0,29.93,WNW,301,3.0,-999.0,58,-99.99,,,0.00,weatherlink.com 1.10,2013-07-02 01:07:00,
2013-07-01 18:22:00,83.5,67.0,29.93,NNW,338,7.0,-999.0,58,-99.99,,,0.00,weatherlink.com 1.10,2013-07-02 01:22:00,
2013-07-01 18:37:00,82.7,66.0,29.94,NW,309,2.0,-999.0,58,-99.99,,,0.00,weatherlink.com 1.10,2013-07-02 01:37:00,
2013-07-01 18:52:00,82.2,66.0,29.94,WNW,288,5.0,-999.0,58,-99.99,,,0.00,weatherlink.com 1.10,2013-07-02 01:52:00,
2013-07-01 19:07:00,81.4,66.0,29.94,WNW,298,2.0,-999.0,59,-99.99,,,0.00,weatherlink.com 1.10,2013-07-02 02:07:00,
2013-07-01 19:22:00,80.7,65.0,29.95,WNW,292,7.0,-999.0,59,-99.99,,,0.00,weatherlink.com 1.10,2013-07-02 02:22:00,
2013-07-01 19:37:00,79.3,64.0,29.96,West,280,1.0,-999.0,59,-99.99,,,0.00,weatherlink.com 1.10,2013-07-02 02:37:00,
2013-07-01 19:52:00,77.8,62.0,29.96,NNW,346,7.0,-999.0,59,-99.99,,,0.00,weatherlink.com 1.10,2013-07-02 02:52:00,
2013-07-01 20:07:00,76.6,61.0,29.97,WNW,291,3.0,-999.0,59,-99.99,,,0.00,weatherlink.com 1.10,2013-07-02 03:07:00,
2013-07-01 20:22:00,75.8,61.0,29.97,NW,317,3.0,-999.0,60,-99.99,,,0.00,weatherlink.com 1.10,2013-07-02 03:22:00,
2013-07-01 20:37:00,75.1,60.0,29.97,NW,313,1.0,-999.0,60,-99.99,,,0.00,weatherlink.com 1.10,2013-07-02 03:37:00,
2013-07-01 20:52:00,73.6,59.0,29.97,NW,316,1.0,-999.0,60,-99.99,,,0.00,weatherlink.com 1.10,2013-07-02 03:52:00,
2013-07-01 21:07:00,72.9,58.0,29.98,NW,323,1.0,-999.0,60,-99.99,,,0.00,weatherlink.com 1.10,2013-07-02 04:07:00,
2013-07-01 21:22:00,72.1,57.0,29.98,NW,322,0.0,-999.0,60,-99.99,,,0.00,weatherlink.com 1.10,2013-07-02 04:22:00,
2013-07-01 21:37:00,71.0,56.0,29.98,NW,322,0.0,-999.0,59,-99.99,,,0.00,weatherlink.com 1.10,2013-07-02 04:37:00,
2013-07-01 21:52:00,69.4,53.0,29.98,NW,322,0.0,-999.0,57,-99.99,,,0.00,weatherlink.com 1.10,2013-07-02 04:52:00,
2013-07-01 22:07:00,68.3,50.0,29.99,NW,322,0.0,-999.0,53,-99.99,,,0.00,weatherlink.com 1.10,2013-07-02 05:07:00,
2013-07-01 22:22:00,68.3,52.0,30.00,NW,309,3.0,-999.0,56,-99.99,,,0.00,weatherlink.com 1.10,2013-07-02 05:22:00,
2013-07-01 22:37:00,68.4,53.0,30.00,NNW,334,2.0,-999.0,58,-99.99,,,0.00,weatherlink.com 1.10,2013-07-02 05:37:00,
2013-07-01 22:52:00,68.1,52.0,30.00,NNW,342,0.0,-999.0,57,-99.99,,,0.00,weatherlink.com 1.10,2013-07-02 05:52:00,
2013-07-01 23:07:00,67.4,51.0,30.01,NNW,342,0.0,-999.0,55,-99.99,,,0.00,weatherlink.com 1.10,2013-07-02 06:07:00,
2013-07-01 23:22:00,66.4,49.0,30.02,NNW,342,0.0,-999.0,53,-99.99,,,0.00,weatherlink.com 1.10,2013-07-02 06:22:00,
2013-07-01 23:37:00,65.8,48.0,30.02,NNW,342,0.0,-999.0,52,-99.99,,,0.00,weatherlink.com 1.10,2013-07-02 06:37:00,
2013-07-01 23:52:00,64.7,45.0,30.03,NNW,342,0.0,-999.0,50,-99.99,,,0.00,weatherlink.com 1.10,2013-07-02 06:52:00,